Morgan City, Mississippi
Current Conditions -  °F | °C
As of 12:53 AM on Friday 28 Nov 2014 (Local Time) from KGWO Reporting Station
Clear Clear  
Wind Chill: 26°   Ceiling: Unl
Heat Index: 32°   Visibility: 10mi
Dew Point: 28°   Wind: 7mph
Humidity: 85%   Direction: 60°ENE
Pressure: 30.45"   Gusts: NA
Location:  33.38°N, 90.35°W
Report Text: KGWO 280653Z AUTO 06006KT 10SM CLR 00/M02 A3045 RMK AO2 SLP314 T00001022 TSNO
Loading
Personal Weather Stations






























Interactive Weather Map New forecast layout! Learn more

10-Day Weather Forecast

Advertisements
Track Severe Weather on mobile